sensor_id;sensor_type;location;lat;lon;timestamp;P1;durP1;ratioP1;P2;durP2;ratioP2
68872;SDS011;55907;50.806;12.882;2022-11-13T00:01:31;18.5;;;15.8;;
68872;SDS011;55907;50.806;12.882;2022-11-13T00:04:32;17.6;;;15.2;;
68872;SDS011;55907;50.806;12.882;2022-11-13T00:07:34;17.8;;;15.1;;
68872;SDS011;55907;50.806;12.882;2022-11-13T00:10:36;19.2;;;15.6;;
68872;SDS011;55907;50.806;12.882;2022-11-13T00:13:37;16.4;;;14.4;;
68872;SDS011;55907;50.806;12.882;2022-11-13T00:16:38;16.1;;;13.2;;
68872;SDS011;55907;50.806;12.882;2022-11-13T00:19:40;19.6;;;16.6;;
68872;SDS011;55907;50.806;12.882;2022-11-13T00:22:42;21.1;;;16.4;;
68872;SDS011;55907;50.806;12.882;2022-11-13T00:25:43;16.6;;;14.8;;
68872;SDS011;55907;50.806;12.882;2022-11-13T00:28:45;19.8;;;14.6;;
68872;SDS011;55907;50.806;12.882;2022-11-13T00:31:46;14.5;;;12.9;;
68872;SDS011;55907;50.806;12.882;2022-11-13T00:34:48;15.5;;;12.6;;
68872;SDS011;55907;50.806;12.882;2022-11-13T00:37:49;14.6;;;11.4;;
68872;SDS011;55907;50.806;12.882;2022-11-13T00:40:51;13.2;;;11.7;;
68872;SDS011;55907;50.806;12.882;2022-11-13T00:43:52;13.3;;;11.9;;
68872;SDS011;55907;50.806;12.882;2022-11-13T00:46:54;13.0;;;11.6;;
68872;SDS011;55907;50.806;12.882;2022-11-13T00:49:56;14.0;;;10.8;;
68872;SDS011;55907;50.806;12.882;2022-11-13T00:52:57;15.8;;;13.2;;
68872;SDS011;55907;50.806;12.882;2022-11-13T00:55:59;13.5;;;11.6;;
68872;SDS011;55907;50.806;12.882;2022-11-13T00:59:00;14.9;;;11.8;;
68872;SDS011;55907;50.806;12.882;2022-11-13T01:02:02;11.8;;;10.6;;
68872;SDS011;55907;50.806;12.882;2022-11-13T01:05:04;12.5;;;10.7;;
68872;SDS011;55907;50.806;12.882;2022-11-13T01:08:05;12.8;;;10.7;;
68872;SDS011;55907;50.806;12.882;2022-11-13T01:11:07;13.1;;;10.3;;
68872;SDS011;55907;50.806;12.882;2022-11-13T01:14:08;11.9;;;10.0;;
68872;SDS011;55907;50.806;12.882;2022-11-13T01:17:10;13.8;;;11.4;;
68872;SDS011;55907;50.806;12.882;2022-11-13T01:20:11;13.9;;;11.2;;
68872;SDS011;55907;50.806;12.882;2022-11-13T01:23:13;13.3;;;11.7;;
68872;SDS011;55907;50.806;12.882;2022-11-13T01:26:15;13.6;;;11.8;;
68872;SDS011;55907;50.806;12.882;2022-11-13T01:29:16;17.1;;;14.0;;
68872;SDS011;55907;50.806;12.882;2022-11-13T01:32:17;15.7;;;14.0;;
68872;SDS011;55907;50.806;12.882;2022-11-13T01:35:19;16.5;;;13.1;;
68872;SDS011;55907;50.806;12.882;2022-11-13T01:38:21;17.4;;;14.5;;
68872;SDS011;55907;50.806;12.882;2022-11-13T01:41:23;14.0;;;12.5;;
68872;SDS011;55907;50.806;12.882;2022-11-13T01:44:24;14.1;;;11.3;;
68872;SDS011;55907;50.806;12.882;2022-11-13T01:47:25;16.0;;;13.4;;
68872;SDS011;55907;50.806;12.882;2022-11-13T01:50:27;15.5;;;13.6;;
68872;SDS011;55907;50.806;12.882;2022-11-13T01:53:28;15.6;;;13.2;;
68872;SDS011;55907;50.806;12.882;2022-11-13T01:56:30;13.3;;;11.8;;
68872;SDS011;55907;50.806;12.882;2022-11-13T01:59:33;17.8;;;14.6;;
68872;SDS011;55907;50.806;12.882;2022-11-13T02:02:33;15.9;;;13.6;;
68872;SDS011;55907;50.806;12.882;2022-11-13T02:05:35;14.6;;;13.1;;
68872;SDS011;55907;50.806;12.882;2022-11-13T02:08:36;15.0;;;13.4;;
68872;SDS011;55907;50.806;12.882;2022-11-13T02:11:38;12.4;;;11.1;;
68872;SDS011;55907;50.806;12.882;2022-11-13T02:14:40;15.7;;;13.2;;
68872;SDS011;55907;50.806;12.882;2022-11-13T02:17:42;15.3;;;13.0;;
68872;SDS011;55907;50.806;12.882;2022-11-13T02:20:44;12.5;;;11.2;;
68872;SDS011;55907;50.806;12.882;2022-11-13T02:23:45;13.3;;;11.9;;
68872;SDS011;55907;50.806;12.882;2022-11-13T02:26:46;12.7;;;11.4;;
68872;SDS011;55907;50.806;12.882;2022-11-13T02:29:47;13.4;;;11.4;;
68872;SDS011;55907;50.806;12.882;2022-11-13T02:32:50;15.7;;;12.7;;
68872;SDS011;55907;50.806;12.882;2022-11-13T02:35:50;13.6;;;11.1;;
68872;SDS011;55907;50.806;12.882;2022-11-13T02:38:52;13.4;;;11.6;;
68872;SDS011;55907;50.806;12.882;2022-11-13T02:41:54;11.7;;;10.5;;
68872;SDS011;55907;50.806;12.882;2022-11-13T02:44:55;12.1;;;10.8;;
68872;SDS011;55907;50.806;12.882;2022-11-13T02:47:58;11.5;;;10.3;;
68872;SDS011;55907;50.806;12.882;2022-11-13T02:50:58;13.2;;;11.8;;
68872;SDS011;55907;50.806;12.882;2022-11-13T02:54:00;12.7;;;11.2;;
68872;SDS011;55907;50.806;12.882;2022-11-13T02:57:02;13.7;;;12.1;;
68872;SDS011;55907;50.806;12.882;2022-11-13T03:00:03;13.2;;;10.4;;
68872;SDS011;55907;50.806;12.882;2022-11-13T03:03:05;13.6;;;11.8;;
68872;SDS011;55907;50.806;12.882;2022-11-13T03:06:06;14.4;;;12.0;;
68872;SDS011;55907;50.806;12.882;2022-11-13T03:09:08;12.9;;;11.6;;
68872;SDS011;55907;50.806;12.882;2022-11-13T03:12:09;12.7;;;11.3;;
68872;SDS011;55907;50.806;12.882;2022-11-13T03:15:11;12.1;;;10.8;;
68872;SDS011;55907;50.806;12.882;2022-11-13T03:18:13;11.3;;;10.2;;
68872;SDS011;55907;50.806;12.882;2022-11-13T03:21:14;10.8;;;9.7;;
68872;SDS011;55907;50.806;12.882;2022-11-13T03:24:16;11.6;;;9.9;;
68872;SDS011;55907;50.806;12.882;2022-11-13T03:27:17;12.0;;;9.9;;
68872;SDS011;55907;50.806;12.882;2022-11-13T03:30:19;11.5;;;10.3;;
68872;SDS011;55907;50.806;12.882;2022-11-13T03:33:20;12.1;;;10.1;;
68872;SDS011;55907;50.806;12.882;2022-11-13T03:36:22;11.3;;;10.1;;
68872;SDS011;55907;50.806;12.882;2022-11-13T03:39:24;11.8;;;9.6;;
68872;SDS011;55907;50.806;12.882;2022-11-13T03:42:25;11.7;;;10.5;;
68872;SDS011;55907;50.806;12.882;2022-11-13T03:45:27;12.1;;;10.8;;
68872;SDS011;55907;50.806;12.882;2022-11-13T03:48:28;13.5;;;11.9;;
68872;SDS011;55907;50.806;12.882;2022-11-13T03:51:30;13.4;;;10.0;;
68872;SDS011;55907;50.806;12.882;2022-11-13T03:54:32;14.5;;;12.1;;
68872;SDS011;55907;50.806;12.882;2022-11-13T03:57:33;13.3;;;11.4;;
68872;SDS011;55907;50.806;12.882;2022-11-13T04:00:35;16.6;;;13.5;;
68872;SDS011;55907;50.806;12.882;2022-11-13T04:03:36;12.7;;;11.2;;
68872;SDS011;55907;50.806;12.882;2022-11-13T04:06:38;13.9;;;11.6;;
68872;SDS011;55907;50.806;12.882;2022-11-13T04:09:39;11.3;;;10.0;;
68872;SDS011;55907;50.806;12.882;2022-11-13T04:12:41;11.7;;;10.5;;
68872;SDS011;55907;50.806;12.882;2022-11-13T04:15:43;10.7;;;8.9;;
68872;SDS011;55907;50.806;12.882;2022-11-13T04:18:44;10.6;;;9.3;;
68872;SDS011;55907;50.806;12.882;2022-11-13T04:21:46;10.5;;;9.4;;
68872;SDS011;55907;50.806;12.882;2022-11-13T04:24:48;11.3;;;9.5;;
68872;SDS011;55907;50.806;12.882;2022-11-13T04:27:49;11.8;;;10.3;;
68872;SDS011;55907;50.806;12.882;2022-11-13T04:30:51;10.4;;;9.3;;
68872;SDS011;55907;50.806;12.882;2022-11-13T04:33:52;10.6;;;9.5;;
68872;SDS011;55907;50.806;12.882;2022-11-13T04:36:54;10.4;;;9.4;;
68872;SDS011;55907;50.806;12.882;2022-11-13T04:39:55;9.9;;;8.9;;
68872;SDS011;55907;50.806;12.882;2022-11-13T04:42:57;9.8;;;8.8;;
68872;SDS011;55907;50.806;12.882;2022-11-13T04:45:59;10.3;;;8.9;;
68872;SDS011;55907;50.806;12.882;2022-11-13T04:49:00;9.8;;;8.8;;
68872;SDS011;55907;50.806;12.882;2022-11-13T04:52:02;9.3;;;8.4;;
68872;SDS011;55907;50.806;12.882;2022-11-13T04:55:04;9.4;;;8.2;;
68872;SDS011;55907;50.806;12.882;2022-11-13T04:58:05;15.2;;;8.4;;
68872;SDS011;55907;50.806;12.882;2022-11-13T05:01:07;10.4;;;9.3;;
68872;SDS011;55907;50.806;12.882;2022-11-13T05:04:09;10.9;;;9.2;;
68872;SDS011;55907;50.806;12.882;2022-11-13T05:07:10;9.0;;;7.6;;
68872;SDS011;55907;50.806;12.882;2022-11-13T05:10:12;11.2;;;9.4;;
68872;SDS011;55907;50.806;12.882;2022-11-13T05:13:13;9.3;;;8.4;;
68872;SDS011;55907;50.806;12.882;2022-11-13T05:16:15;8.3;;;7.4;;
68872;SDS011;55907;50.806;12.882;2022-11-13T05:19:16;8.9;;;7.0;;
68872;SDS011;55907;50.806;12.882;2022-11-13T05:22:18;8.5;;;7.0;;
68872;SDS011;55907;50.806;12.882;2022-11-13T05:25:20;7.9;;;5.8;;
68872;SDS011;55907;50.806;12.882;2022-11-13T05:28:21;8.7;;;7.8;;
68872;SDS011;55907;50.806;12.882;2022-11-13T05:31:23;7.7;;;6.2;;
68872;SDS011;55907;50.806;12.882;2022-11-13T05:34:24;7.9;;;7.1;;
68872;SDS011;55907;50.806;12.882;2022-11-13T05:37:27;7.0;;;6.0;;
68872;SDS011;55907;50.806;12.882;2022-11-13T05:40:28;9.2;;;7.2;;
68872;SDS011;55907;50.806;12.882;2022-11-13T05:43:29;9.3;;;8.4;;
68872;SDS011;55907;50.806;12.882;2022-11-13T05:46:31;6.6;;;6.0;;
68872;SDS011;55907;50.806;12.882;2022-11-13T05:49:32;7.5;;;6.8;;
68872;SDS011;55907;50.806;12.882;2022-11-13T05:52:34;8.8;;;7.4;;
68872;SDS011;55907;50.806;12.882;2022-11-13T05:55:35;7.1;;;6.4;;
68872;SDS011;55907;50.806;12.882;2022-11-13T05:58:37;8.8;;;7.4;;
68872;SDS011;55907;50.806;12.882;2022-11-13T06:04:40;7.1;;;6.4;;
68872;SDS011;55907;50.806;12.882;2022-11-13T06:07:42;7.5;;;6.7;;
68872;SDS011;55907;50.806;12.882;2022-11-13T06:10:43;7.1;;;6.5;;
68872;SDS011;55907;50.806;12.882;2022-11-13T06:16:47;7.2;;;6.5;;
68872;SDS011;55907;50.806;12.882;2022-11-13T06:19:48;7.6;;;6.9;;
68872;SDS011;55907;50.806;12.882;2022-11-13T06:22:50;7.3;;;6.7;;
68872;SDS011;55907;50.806;12.882;2022-11-13T06:25:51;7.0;;;6.4;;
68872;SDS011;55907;50.806;12.882;2022-11-13T06:28:53;8.2;;;7.4;;
68872;SDS011;55907;50.806;12.882;2022-11-13T06:31:55;8.5;;;7.7;;
68872;SDS011;55907;50.806;12.882;2022-11-13T06:34:56;8.1;;;7.1;;
68872;SDS011;55907;50.806;12.882;2022-11-13T06:37:58;6.2;;;5.6;;
68872;SDS011;55907;50.806;12.882;2022-11-13T06:41:00;6.5;;;6.0;;
68872;SDS011;55907;50.806;12.882;2022-11-13T06:47:03;6.2;;;5.7;;
68872;SDS011;55907;50.806;12.882;2022-11-13T06:50:05;6.3;;;5.7;;
68872;SDS011;55907;50.806;12.882;2022-11-13T06:53:06;6.2;;;5.7;;
68872;SDS011;55907;50.806;12.882;2022-11-13T06:59:09;6.1;;;5.7;;
68872;SDS011;55907;50.806;12.882;2022-11-13T07:02:10;6.5;;;5.9;;
68872;SDS011;55907;50.806;12.882;2022-11-13T07:05:12;6.3;;;5.8;;
68872;SDS011;55907;50.806;12.882;2022-11-13T07:08:14;6.7;;;6.2;;
68872;SDS011;55907;50.806;12.882;2022-11-13T07:11:16;6.9;;;6.4;;
68872;SDS011;55907;50.806;12.882;2022-11-13T07:14:17;6.7;;;6.2;;
68872;SDS011;55907;50.806;12.882;2022-11-13T07:17:18;6.9;;;6.3;;
68872;SDS011;55907;50.806;12.882;2022-11-13T07:20:20;7.5;;;6.8;;
68872;SDS011;55907;50.806;12.882;2022-11-13T07:23:22;9.5;;;8.6;;
68872;SDS011;55907;50.806;12.882;2022-11-13T07:26:23;8.5;;;7.7;;
68872;SDS011;55907;50.806;12.882;2022-11-13T07:32:26;8.4;;;7.7;;
68872;SDS011;55907;50.806;12.882;2022-11-13T07:35:27;8.1;;;7.4;;
68872;SDS011;55907;50.806;12.882;2022-11-13T07:38:29;7.8;;;7.2;;
68872;SDS011;55907;50.806;12.882;2022-11-13T07:41:31;8.2;;;7.5;;
68872;SDS011;55907;50.806;12.882;2022-11-13T07:44:32;8.0;;;7.3;;
68872;SDS011;55907;50.806;12.882;2022-11-13T07:47:34;8.2;;;7.4;;
68872;SDS011;55907;50.806;12.882;2022-11-13T07:50:36;8.5;;;7.8;;
68872;SDS011;55907;50.806;12.882;2022-11-13T07:53:37;9.6;;;8.7;;
68872;SDS011;55907;50.806;12.882;2022-11-13T07:56:38;27.3;;;19.9;;
68872;SDS011;55907;50.806;12.882;2022-11-13T07:59:40;12.4;;;11.1;;
68872;SDS011;55907;50.806;12.882;2022-11-13T08:02:41;10.4;;;9.1;;
68872;SDS011;55907;50.806;12.882;2022-11-13T08:05:43;8.6;;;7.8;;
68872;SDS011;55907;50.806;12.882;2022-11-13T08:08:46;8.8;;;7.9;;
68872;SDS011;55907;50.806;12.882;2022-11-13T08:11:46;5.9;;;4.6;;
68872;SDS011;55907;50.806;12.882;2022-11-13T08:14:47;5.3;;;3.4;;
68872;SDS011;55907;50.806;12.882;2022-11-13T08:17:52;5.7;;;3.4;;
68872;SDS011;55907;50.806;12.882;2022-11-13T08:20:51;5.9;;;4.1;;
68872;SDS011;55907;50.806;12.882;2022-11-13T08:23:52;17.7;;;10.8;;
68872;SDS011;55907;50.806;12.882;2022-11-13T08:26:53;9.2;;;5.8;;
68872;SDS011;55907;50.806;12.882;2022-11-13T08:29:55;6.5;;;4.3;;
68872;SDS011;55907;50.806;12.882;2022-11-13T08:32:56;5.0;;;3.7;;
68872;SDS011;55907;50.806;12.882;2022-11-13T08:35:58;6.1;;;4.3;;
68872;SDS011;55907;50.806;12.882;2022-11-13T08:42:01;7.1;;;4.3;;
68872;SDS011;55907;50.806;12.882;2022-11-13T08:45:02;6.3;;;4.1;;
68872;SDS011;55907;50.806;12.882;2022-11-13T08:48:04;7.2;;;4.2;;
68872;SDS011;55907;50.806;12.882;2022-11-13T08:51:05;4.7;;;3.9;;
68872;SDS011;55907;50.806;12.882;2022-11-13T08:54:06;5.3;;;4.0;;
68872;SDS011;55907;50.806;12.882;2022-11-13T08:57:08;3.6;;;2.8;;
68872;SDS011;55907;50.806;12.882;2022-11-13T09:00:10;4.3;;;3.1;;
68872;SDS011;55907;50.806;12.882;2022-11-13T09:03:10;3.8;;;2.7;;
68872;SDS011;55907;50.806;12.882;2022-11-13T09:06:12;3.4;;;2.4;;
68872;SDS011;55907;50.806;12.882;2022-11-13T09:09:13;3.0;;;2.4;;
68872;SDS011;55907;50.806;12.882;2022-11-13T09:12:15;3.6;;;2.8;;
68872;SDS011;55907;50.806;12.882;2022-11-13T09:15:16;5.4;;;3.3;;
68872;SDS011;55907;50.806;12.882;2022-11-13T09:18:17;6.1;;;4.1;;
68872;SDS011;55907;50.806;12.882;2022-11-13T09:21:19;4.8;;;3.3;;
68872;SDS011;55907;50.806;12.882;2022-11-13T09:24:20;5.2;;;3.3;;
68872;SDS011;55907;50.806;12.882;2022-11-13T09:27:22;5.9;;;3.6;;
68872;SDS011;55907;50.806;12.882;2022-11-13T09:30:23;4.8;;;3.6;;
68872;SDS011;55907;50.806;12.882;2022-11-13T09:33:24;3.4;;;2.9;;
68872;SDS011;55907;50.806;12.882;2022-11-13T09:36:26;3.7;;;2.8;;
68872;SDS011;55907;50.806;12.882;2022-11-13T09:39:27;4.1;;;3.0;;
68872;SDS011;55907;50.806;12.882;2022-11-13T09:42:28;3.9;;;3.0;;
68872;SDS011;55907;50.806;12.882;2022-11-13T09:45:30;5.0;;;3.5;;
68872;SDS011;55907;50.806;12.882;2022-11-13T09:48:32;3.7;;;3.2;;
68872;SDS011;55907;50.806;12.882;2022-11-13T09:51:33;3.9;;;3.3;;
68872;SDS011;55907;50.806;12.882;2022-11-13T09:54:34;4.7;;;3.3;;
68872;SDS011;55907;50.806;12.882;2022-11-13T09:57:37;3.5;;;3.0;;
68872;SDS011;55907;50.806;12.882;2022-11-13T10:00:36;3.7;;;2.9;;
68872;SDS011;55907;50.806;12.882;2022-11-13T10:03:38;3.8;;;3.2;;
68872;SDS011;55907;50.806;12.882;2022-11-13T10:06:43;4.5;;;3.0;;
68872;SDS011;55907;50.806;12.882;2022-11-13T10:09:45;4.0;;;2.9;;
68872;SDS011;55907;50.806;12.882;2022-11-13T10:12:42;4.6;;;3.4;;
68872;SDS011;55907;50.806;12.882;2022-11-13T10:15:43;4.7;;;3.0;;
68872;SDS011;55907;50.806;12.882;2022-11-13T10:18:44;6.0;;;4.8;;
68872;SDS011;55907;50.806;12.882;2022-11-13T10:21:47;4.1;;;3.7;;
68872;SDS011;55907;50.806;12.882;2022-11-13T10:24:48;3.7;;;3.3;;
68872;SDS011;55907;50.806;12.882;2022-11-13T10:27:49;4.0;;;3.0;;
68872;SDS011;55907;50.806;12.882;2022-11-13T10:30:50;3.7;;;2.7;;
68872;SDS011;55907;50.806;12.882;2022-11-13T10:33:51;3.6;;;2.8;;
68872;SDS011;55907;50.806;12.882;2022-11-13T10:36:58;4.0;;;2.9;;
68872;SDS011;55907;50.806;12.882;2022-11-13T10:39:54;3.2;;;2.7;;
68872;SDS011;55907;50.806;12.882;2022-11-13T10:43:03;4.1;;;2.6;;
68872;SDS011;55907;50.806;12.882;2022-11-13T10:45:57;4.0;;;2.7;;
68872;SDS011;55907;50.806;12.882;2022-11-13T10:49:09;5.0;;;3.3;;
68872;SDS011;55907;50.806;12.882;2022-11-13T10:51:59;3.9;;;2.8;;
68872;SDS011;55907;50.806;12.882;2022-11-13T10:55:08;7.3;;;6.1;;
68872;SDS011;55907;50.806;12.882;2022-11-13T10:58:03;10.4;;;8.9;;
68872;SDS011;55907;50.806;12.882;2022-11-13T11:01:12;4.0;;;2.6;;
68872;SDS011;55907;50.806;12.882;2022-11-13T11:04:05;3.0;;;2.2;;
68872;SDS011;55907;50.806;12.882;2022-11-13T11:07:10;2.2;;;2.0;;
68872;SDS011;55907;50.806;12.882;2022-11-13T11:10:18;2.5;;;2.2;;
68872;SDS011;55907;50.806;12.882;2022-11-13T11:13:09;3.8;;;1.6;;
68872;SDS011;55907;50.806;12.882;2022-11-13T11:16:11;3.6;;;1.9;;
68872;SDS011;55907;50.806;12.882;2022-11-13T11:19:11;2.4;;;1.9;;
68872;SDS011;55907;50.806;12.882;2022-11-13T11:22:14;2.5;;;1.8;;
68872;SDS011;55907;50.806;12.882;2022-11-13T11:31:19;2.1;;;1.7;;
68872;SDS011;55907;50.806;12.882;2022-11-13T11:34:19;2.7;;;1.8;;
68872;SDS011;55907;50.806;12.882;2022-11-13T11:37:20;2.3;;;1.5;;
68872;SDS011;55907;50.806;12.882;2022-11-13T11:40:24;3.2;;;2.0;;
68872;SDS011;55907;50.806;12.882;2022-11-13T11:43:24;2.4;;;1.6;;
68872;SDS011;55907;50.806;12.882;2022-11-13T11:46:23;2.1;;;1.6;;
68872;SDS011;55907;50.806;12.882;2022-11-13T11:49:25;3.1;;;2.0;;
68872;SDS011;55907;50.806;12.882;2022-11-13T11:52:31;2.9;;;1.7;;
68872;SDS011;55907;50.806;12.882;2022-11-13T11:55:30;3.5;;;1.6;;
68872;SDS011;55907;50.806;12.882;2022-11-13T11:58:34;1.6;;;1.3;;
68872;SDS011;55907;50.806;12.882;2022-11-13T12:01:35;1.8;;;1.4;;
68872;SDS011;55907;50.806;12.882;2022-11-13T12:07:36;2.2;;;1.4;;
68872;SDS011;55907;50.806;12.882;2022-11-13T12:10:37;2.3;;;1.5;;
68872;SDS011;55907;50.806;12.882;2022-11-13T12:13:38;1.6;;;1.2;;
68872;SDS011;55907;50.806;12.882;2022-11-13T12:16:39;1.4;;;1.2;;
68872;SDS011;55907;50.806;12.882;2022-11-13T12:19:41;2.0;;;1.4;;
68872;SDS011;55907;50.806;12.882;2022-11-13T12:22:43;1.8;;;1.2;;
68872;SDS011;55907;50.806;12.882;2022-11-13T12:28:44;2.0;;;1.2;;
68872;SDS011;55907;50.806;12.882;2022-11-13T12:31:47;1.5;;;1.1;;
68872;SDS011;55907;50.806;12.882;2022-11-13T12:34:47;2.3;;;1.6;;
68872;SDS011;55907;50.806;12.882;2022-11-13T12:37:48;1.9;;;1.4;;
68872;SDS011;55907;50.806;12.882;2022-11-13T12:40:50;1.8;;;1.2;;
68872;SDS011;55907;50.806;12.882;2022-11-13T12:43:55;2.2;;;1.6;;
68872;SDS011;55907;50.806;12.882;2022-11-13T12:46:52;8.0;;;5.8;;
68872;SDS011;55907;50.806;12.882;2022-11-13T12:49:57;2.1;;;1.6;;
68872;SDS011;55907;50.806;12.882;2022-11-13T12:52:58;2.5;;;1.3;;
68872;SDS011;55907;50.806;12.882;2022-11-13T12:55:56;1.5;;;1.2;;
68872;SDS011;55907;50.806;12.882;2022-11-13T12:58:58;2.4;;;2.0;;
68872;SDS011;55907;50.806;12.882;2022-11-13T13:02:00;2.3;;;1.4;;
68872;SDS011;55907;50.806;12.882;2022-11-13T13:05:03;2.1;;;1.3;;
68872;SDS011;55907;50.806;12.882;2022-11-13T13:08:13;1.8;;;1.0;;
68872;SDS011;55907;50.806;12.882;2022-11-13T13:11:08;2.0;;;1.0;;
68872;SDS011;55907;50.806;12.882;2022-11-13T13:14:10;1.7;;;1.2;;
68872;SDS011;55907;50.806;12.882;2022-11-13T13:17:08;1.2;;;1.0;;
68872;SDS011;55907;50.806;12.882;2022-11-13T13:23:09;2.1;;;1.3;;
68872;SDS011;55907;50.806;12.882;2022-11-13T13:26:14;1.4;;;1.2;;
68872;SDS011;55907;50.806;12.882;2022-11-13T13:29:15;1.8;;;1.2;;
68872;SDS011;55907;50.806;12.882;2022-11-13T13:32:14;2.1;;;1.2;;
68872;SDS011;55907;50.806;12.882;2022-11-13T13:35:16;2.6;;;1.3;;
68872;SDS011;55907;50.806;12.882;2022-11-13T13:38:17;2.5;;;1.2;;
68872;SDS011;55907;50.806;12.882;2022-11-13T13:41:20;3.1;;;1.4;;
68872;SDS011;55907;50.806;12.882;2022-11-13T13:44:23;1.9;;;1.5;;
68872;SDS011;55907;50.806;12.882;2022-11-13T13:47:22;2.2;;;1.5;;
68872;SDS011;55907;50.806;12.882;2022-11-13T13:50:23;1.9;;;1.4;;
68872;SDS011;55907;50.806;12.882;2022-11-13T13:53:24;1.4;;;1.2;;
68872;SDS011;55907;50.806;12.882;2022-11-13T13:56:24;1.8;;;1.3;;
68872;SDS011;55907;50.806;12.882;2022-11-13T14:02:27;2.7;;;1.5;;
68872;SDS011;55907;50.806;12.882;2022-11-13T14:05:29;2.5;;;1.7;;
68872;SDS011;55907;50.806;12.882;2022-11-13T14:08:30;2.4;;;1.4;;
68872;SDS011;55907;50.806;12.882;2022-11-13T14:11:31;1.7;;;1.4;;
68872;SDS011;55907;50.806;12.882;2022-11-13T14:14:33;2.0;;;1.5;;
68872;SDS011;55907;50.806;12.882;2022-11-13T14:17:34;2.7;;;1.9;;
68872;SDS011;55907;50.806;12.882;2022-11-13T14:20:38;2.3;;;1.6;;
68872;SDS011;55907;50.806;12.882;2022-11-13T14:23:39;1.7;;;1.4;;
68872;SDS011;55907;50.806;12.882;2022-11-13T14:29:44;2.3;;;1.6;;
68872;SDS011;55907;50.806;12.882;2022-11-13T14:32:41;3.8;;;1.8;;
68872;SDS011;55907;50.806;12.882;2022-11-13T14:35:48;3.4;;;1.7;;
68872;SDS011;55907;50.806;12.882;2022-11-13T14:38:45;2.3;;;1.6;;
68872;SDS011;55907;50.806;12.882;2022-11-13T14:41:47;2.1;;;1.7;;
68872;SDS011;55907;50.806;12.882;2022-11-13T14:44:47;2.2;;;1.6;;
68872;SDS011;55907;50.806;12.882;2022-11-13T14:47:57;2.5;;;1.8;;
68872;SDS011;55907;50.806;12.882;2022-11-13T14:50:51;3.8;;;2.0;;
68872;SDS011;55907;50.806;12.882;2022-11-13T14:53:56;2.5;;;1.9;;
68872;SDS011;55907;50.806;12.882;2022-11-13T14:56:53;3.4;;;2.5;;
68872;SDS011;55907;50.806;12.882;2022-11-13T14:59:55;4.0;;;1.9;;
68872;SDS011;55907;50.806;12.882;2022-11-13T15:02:56;5.5;;;3.6;;
68872;SDS011;55907;50.806;12.882;2022-11-13T15:05:58;4.8;;;2.9;;
68872;SDS011;55907;50.806;12.882;2022-11-13T15:08:59;2.8;;;2.0;;
68872;SDS011;55907;50.806;12.882;2022-11-13T15:12:01;3.8;;;2.4;;
68872;SDS011;55907;50.806;12.882;2022-11-13T15:15:02;2.8;;;2.2;;
68872;SDS011;55907;50.806;12.882;2022-11-13T15:18:03;3.8;;;2.4;;
68872;SDS011;55907;50.806;12.882;2022-11-13T15:21:05;2.8;;;2.2;;
68872;SDS011;55907;50.806;12.882;2022-11-13T15:27:09;3.4;;;2.5;;
68872;SDS011;55907;50.806;12.882;2022-11-13T15:30:10;3.1;;;2.5;;
68872;SDS011;55907;50.806;12.882;2022-11-13T15:33:11;4.5;;;2.7;;
68872;SDS011;55907;50.806;12.882;2022-11-13T15:36:12;4.4;;;3.0;;
68872;SDS011;55907;50.806;12.882;2022-11-13T15:39:14;4.8;;;3.5;;
68872;SDS011;55907;50.806;12.882;2022-11-13T15:42:16;5.2;;;3.7;;
68872;SDS011;55907;50.806;12.882;2022-11-13T15:45:17;6.2;;;3.6;;
68872;SDS011;55907;50.806;12.882;2022-11-13T15:48:18;5.8;;;3.8;;
68872;SDS011;55907;50.806;12.882;2022-11-13T15:51:20;7.9;;;3.7;;
68872;SDS011;55907;50.806;12.882;2022-11-13T15:54:23;5.6;;;3.8;;
68872;SDS011;55907;50.806;12.882;2022-11-13T15:57:23;6.3;;;4.1;;
68872;SDS011;55907;50.806;12.882;2022-11-13T16:00:25;6.8;;;4.3;;
68872;SDS011;55907;50.806;12.882;2022-11-13T16:03:26;8.7;;;4.4;;
68872;SDS011;55907;50.806;12.882;2022-11-13T16:06:27;6.5;;;4.2;;
68872;SDS011;55907;50.806;12.882;2022-11-13T16:09:29;7.3;;;4.7;;
68872;SDS011;55907;50.806;12.882;2022-11-13T16:12:30;7.7;;;5.1;;
68872;SDS011;55907;50.806;12.882;2022-11-13T16:15:32;7.9;;;5.1;;
68872;SDS011;55907;50.806;12.882;2022-11-13T16:18:33;10.4;;;5.8;;
68872;SDS011;55907;50.806;12.882;2022-11-13T16:21:35;8.9;;;5.4;;
68872;SDS011;55907;50.806;12.882;2022-11-13T16:24:36;8.0;;;5.1;;
68872;SDS011;55907;50.806;12.882;2022-11-13T16:27:38;8.2;;;5.6;;
68872;SDS011;55907;50.806;12.882;2022-11-13T16:30:40;9.6;;;6.1;;
68872;SDS011;55907;50.806;12.882;2022-11-13T16:33:41;9.2;;;6.0;;
68872;SDS011;55907;50.806;12.882;2022-11-13T16:36:43;9.7;;;6.5;;
68872;SDS011;55907;50.806;12.882;2022-11-13T16:39:44;9.1;;;6.4;;
68872;SDS011;55907;50.806;12.882;2022-11-13T16:42:46;10.7;;;6.8;;
68872;SDS011;55907;50.806;12.882;2022-11-13T16:45:47;10.8;;;7.1;;
68872;SDS011;55907;50.806;12.882;2022-11-13T16:48:49;10.1;;;6.5;;
68872;SDS011;55907;50.806;12.882;2022-11-13T16:51:50;9.8;;;6.7;;
68872;SDS011;55907;50.806;12.882;2022-11-13T16:54:52;9.3;;;6.3;;
68872;SDS011;55907;50.806;12.882;2022-11-13T16:57:53;10.4;;;7.3;;
68872;SDS011;55907;50.806;12.882;2022-11-13T17:00:55;11.1;;;7.2;;
68872;SDS011;55907;50.806;12.882;2022-11-13T17:03:56;11.7;;;8.1;;
68872;SDS011;55907;50.806;12.882;2022-11-13T17:06:58;13.1;;;9.0;;
68872;SDS011;55907;50.806;12.882;2022-11-13T17:09:59;14.9;;;11.1;;
68872;SDS011;55907;50.806;12.882;2022-11-13T17:13:01;14.0;;;11.4;;
68872;SDS011;55907;50.806;12.882;2022-11-13T17:16:03;15.0;;;12.5;;
68872;SDS011;55907;50.806;12.882;2022-11-13T17:19:04;15.8;;;13.7;;
68872;SDS011;55907;50.806;12.882;2022-11-13T17:22:06;14.7;;;12.9;;
68872;SDS011;55907;50.806;12.882;2022-11-13T17:25:07;15.8;;;13.5;;
68872;SDS011;55907;50.806;12.882;2022-11-13T17:28:09;17.9;;;14.4;;
68872;SDS011;55907;50.806;12.882;2022-11-13T17:31:10;16.2;;;14.0;;
68872;SDS011;55907;50.806;12.882;2022-11-13T17:34:12;17.0;;;14.9;;
68872;SDS011;55907;50.806;12.882;2022-11-13T17:37:13;17.5;;;15.3;;
68872;SDS011;55907;50.806;12.882;2022-11-13T17:40:15;18.6;;;15.5;;
68872;SDS011;55907;50.806;12.882;2022-11-13T17:42:50;unavailable;;;unavailable;;
68872;SDS011;55907;50.806;12.882;2022-11-13T17:42:51;18.6;;;15.5;;
68872;SDS011;55907;50.806;12.882;2022-11-13T17:43:16;18.2;;;14.2;;
68872;SDS011;55907;50.806;12.882;2022-11-13T17:46:18;18.3;;;13.3;;
68872;SDS011;55907;50.806;12.882;2022-11-13T17:48:57;unavailable;;;unavailable;;
68872;SDS011;55907;50.806;12.882;2022-11-13T17:48:59;18.3;;;13.3;;
68872;SDS011;55907;50.806;12.882;2022-11-13T17:49:19;15.3;;;11.3;;
68872;SDS011;55907;50.806;12.882;2022-11-13T17:52:21;15.1;;;9.8;;
68872;SDS011;55907;50.806;12.882;2022-11-13T17:55:22;15.3;;;9.6;;
68872;SDS011;55907;50.806;12.882;2022-11-13T17:58:24;14.8;;;9.8;;
68872;SDS011;55907;50.806;12.882;2022-11-13T18:01:25;15.2;;;10.4;;
68872;SDS011;55907;50.806;12.882;2022-11-13T18:04:27;15.6;;;11.0;;
68872;SDS011;55907;50.806;12.882;2022-11-13T18:07:29;16.0;;;12.9;;
68872;SDS011;55907;50.806;12.882;2022-11-13T18:10:30;17.7;;;14.8;;
68872;SDS011;55907;50.806;12.882;2022-11-13T18:13:32;16.8;;;14.5;;
68872;SDS011;55907;50.806;12.882;2022-11-13T18:16:33;19.6;;;16.3;;
68872;SDS011;55907;50.806;12.882;2022-11-13T18:19:35;21.0;;;18.0;;
68872;SDS011;55907;50.806;12.882;2022-11-13T18:22:36;19.3;;;16.7;;
68872;SDS011;55907;50.806;12.882;2022-11-13T18:25:38;20.2;;;16.1;;
68872;SDS011;55907;50.806;12.882;2022-11-13T18:28:39;21.2;;;18.0;;
68872;SDS011;55907;50.806;12.882;2022-11-13T18:31:41;21.7;;;17.7;;
68872;SDS011;55907;50.806;12.882;2022-11-13T18:34:42;22.9;;;19.1;;
68872;SDS011;55907;50.806;12.882;2022-11-13T18:37:44;22.8;;;18.9;;
68872;SDS011;55907;50.806;12.882;2022-11-13T18:40:45;26.9;;;20.1;;
68872;SDS011;55907;50.806;12.882;2022-11-13T18:43:48;23.0;;;18.0;;
68872;SDS011;55907;50.806;12.882;2022-11-13T18:46:48;27.1;;;19.7;;